Terminal Aerodrome Forecast
Issued by NWS Cleveland, OH

Home | Current Version | Previous Version | Graphics & Text | Print | Product List | Glossary On
Versions: 1 2 3 4 5 6 7 8 9 10 11 12 13 14 15 16 17 18 19 20 21 22 23 24 25 26 27 28 29
000
FTUS41 KCLE 021826 AAA
TAFCAK
TAF AMD
KCAK 021826Z 0218/0318 27008KT P6SM VCTS SCT050CB
      TEMPO 0218/0220 VRB15G25KT 4SM TSRA BKN050CB
     FM022100 27008KT P6SM SCT050
     FM030200 24005KT P6SM SCT250
      TEMPO 0311/0313 5SM BR
     FM031300 30005KT P6SM SCT060 BKN150=

USA.gov is the U.S. government's official web portal to all federal, state and local government web resources and services.